createdAt,value
2022-12-05T00:01:59.513Z,18.85
2022-12-05T00:04:26.392Z,15.70
2022-12-05T00:06:53.209Z,18.45
2022-12-05T00:09:19.942Z,19.45
2022-12-05T00:11:47.999Z,19.83
2022-12-05T00:14:14.844Z,20.67
2022-12-05T00:16:43.459Z,20.52
2022-12-05T00:19:12.985Z,18.48
2022-12-05T00:21:40.193Z,16.52
2022-12-05T00:24:08.507Z,19.65
2022-12-05T00:26:35.737Z,20.92
2022-12-05T00:29:03.856Z,21.13
2022-12-05T00:31:31.043Z,18.57
2022-12-05T00:34:00.765Z,18.65
2022-12-05T00:36:29.799Z,20.00
2022-12-05T00:41:27.871Z,19.80
2022-12-05T00:43:55.477Z,18.48
2022-12-05T00:46:25.713Z,16.42
2022-12-05T00:48:53.312Z,21.50
2022-12-05T00:51:22.069Z,21.83
2022-12-05T00:53:49.237Z,19.33
2022-12-05T00:56:18.361Z,19.98
2022-12-05T00:58:45.948Z,18.45
2022-12-05T01:01:15.056Z,19.20
2022-12-05T01:03:44.194Z,19.65
2022-12-05T01:06:12.239Z,20.35
2022-12-05T01:08:39.398Z,20.88
2022-12-05T01:11:07.220Z,21.75
2022-12-05T01:13:34.806Z,18.63
2022-12-05T01:16:02.216Z,19.70
2022-12-05T01:18:29.568Z,20.48
2022-12-05T01:20:57.737Z,21.60
2022-12-05T01:23:24.486Z,22.88
2022-12-05T01:25:52.337Z,17.30
2022-12-05T01:28:19.560Z,16.88
2022-12-05T01:30:48.180Z,18.58
2022-12-05T01:33:15.353Z,19.65
2022-12-05T01:35:42.561Z,14.27
2022-12-05T01:38:12.487Z,21.23
2022-12-05T01:40:39.760Z,16.40
2022-12-05T01:43:14.377Z,20.08
2022-12-05T01:45:42.940Z,17.80
2022-12-05T01:48:14.931Z,20.33
2022-12-05T01:50:41.784Z,19.85
2022-12-05T01:53:08.776Z,17.67
2022-12-05T01:55:37.813Z,20.45
2022-12-05T02:00:32.278Z,17.63
2022-12-05T02:03:02.180Z,14.73
2022-12-05T02:05:30.967Z,17.15
2022-12-05T02:07:59.147Z,18.02
2022-12-05T02:10:27.560Z,19.70
2022-12-05T02:13:00.336Z,20.90
2022-12-05T02:15:40.260Z,20.55
2022-12-05T02:18:18.756Z,18.15
2022-12-05T02:20:56.508Z,17.55
2022-12-05T02:23:53.410Z,16.42
2022-12-05T02:26:38.860Z,18.77
2022-12-05T02:29:41.309Z,18.40
2022-12-05T02:32:13.910Z,17.63
2022-12-05T02:34:52.115Z,15.70
2022-12-05T02:37:27.600Z,18.52
2022-12-05T02:40:00.978Z,16.30
2022-12-05T02:42:32.825Z,20.27
2022-12-05T02:45:03.864Z,21.27
2022-12-05T02:47:33.451Z,18.30
2022-12-05T02:50:01.171Z,17.65
2022-12-05T02:52:29.973Z,19.80
2022-12-05T02:54:57.314Z,16.92
2022-12-05T02:57:23.981Z,19.48
2022-12-05T02:59:50.859Z,20.45
2022-12-05T03:02:27.266Z,18.25
2022-12-05T03:04:58.175Z,18.50
2022-12-05T03:07:28.901Z,15.07
2022-12-05T03:10:00.227Z,17.77
2022-12-05T03:12:32.216Z,19.58
2022-12-05T03:15:03.676Z,20.95
2022-12-05T03:17:35.621Z,16.85
2022-12-05T03:20:06.789Z,16.30
2022-12-05T03:22:38.108Z,12.77
2022-12-05T03:25:06.276Z,17.85
2022-12-05T03:27:45.070Z,19.85
2022-12-05T03:30:14.576Z,18.50
2022-12-05T03:32:49.448Z,20.27
2022-12-05T03:35:23.182Z,16.65
2022-12-05T03:37:54.784Z,18.25
2022-12-05T03:40:29.376Z,17.83
2022-12-05T03:43:01.507Z,16.83
2022-12-05T03:45:33.772Z,18.17
2022-12-05T03:48:07.819Z,17.88
2022-12-05T03:50:37.353Z,18.45
2022-12-05T03:53:22.447Z,19.48
2022-12-05T03:55:54.711Z,18.98
2022-12-05T03:58:26.872Z,18.30
2022-12-05T04:00:57.500Z,15.15
2022-12-05T04:03:32.492Z,19.05
2022-12-05T04:06:03.849Z,17.90
2022-12-05T04:08:34.789Z,14.85
2022-12-05T04:11:04.648Z,17.77
2022-12-05T04:13:36.829Z,16.88
2022-12-05T04:16:09.414Z,19.50
2022-12-05T04:18:42.620Z,18.60
2022-12-05T04:21:10.251Z,18.30
2022-12-05T04:23:36.991Z,17.23
2022-12-05T04:26:11.195Z,12.18
2022-12-05T04:28:44.183Z,18.63
2022-12-05T04:31:14.374Z,15.00
2022-12-05T04:33:47.187Z,15.80
2022-12-05T04:36:19.062Z,17.50
2022-12-05T04:38:51.310Z,17.00
2022-12-05T04:41:22.235Z,16.55
2022-12-05T04:43:52.090Z,15.27
2022-12-05T04:46:21.448Z,17.95
2022-12-05T04:48:52.643Z,14.88
2022-12-05T04:51:23.023Z,16.50
2022-12-05T04:53:54.607Z,16.17
2022-12-05T04:56:24.822Z,15.65
2022-12-05T04:58:51.511Z,17.77
2022-12-05T05:01:22.893Z,17.52
2022-12-05T05:03:55.769Z,17.42
2022-12-05T05:06:22.464Z,17.48
2022-12-05T05:08:50.530Z,17.00
2022-12-05T05:11:20.012Z,14.83
2022-12-05T05:13:46.746Z,17.42
2022-12-05T05:16:15.833Z,16.70
2022-12-05T05:18:42.611Z,15.52
2022-12-05T05:21:16.471Z,14.13
2022-12-05T05:23:43.217Z,17.52
2022-12-05T05:26:09.935Z,18.10
2022-12-05T05:28:36.630Z,18.33
2022-12-05T05:31:04.136Z,16.30
2022-12-05T05:33:31.061Z,15.73
2022-12-05T05:35:57.803Z,15.43
2022-12-05T05:38:25.847Z,15.85
2022-12-05T05:40:52.580Z,16.93
2022-12-05T05:43:19.327Z,14.88
2022-12-05T05:45:46.064Z,12.02
2022-12-05T05:48:12.793Z,15.32
2022-12-05T05:50:39.448Z,15.45
2022-12-05T05:53:06.171Z,15.90
2022-12-05T05:55:34.213Z,12.63
2022-12-05T05:58:00.953Z,17.60
2022-12-05T06:00:27.682Z,14.05
2022-12-05T06:02:54.527Z,14.18
2022-12-05T06:05:21.435Z,14.65
2022-12-05T06:07:48.233Z,15.48
2022-12-05T06:10:15.192Z,15.82
2022-12-05T06:12:43.216Z,13.30
2022-12-05T06:15:10.413Z,10.32
2022-12-05T06:17:37.288Z,17.63
2022-12-05T06:20:04.527Z,15.77
2022-12-05T06:22:31.384Z,17.88
2022-12-05T06:24:58.369Z,16.05
2022-12-05T06:27:25.148Z,16.42
2022-12-05T06:29:53.184Z,16.10
2022-12-05T06:32:19.923Z,17.55
2022-12-05T06:34:46.631Z,17.30
2022-12-05T06:37:13.373Z,15.00
2022-12-05T06:39:40.224Z,16.33
2022-12-05T06:42:06.906Z,16.88
2022-12-05T06:44:33.652Z,16.00
2022-12-05T06:47:01.707Z,16.13
2022-12-05T06:49:32.600Z,17.97
2022-12-05T06:52:00.435Z,18.73
2022-12-05T06:54:27.237Z,16.33
2022-12-05T06:56:53.957Z,15.95
2022-12-05T06:59:20.633Z,17.27
2022-12-05T07:01:47.463Z,14.10
2022-12-05T07:04:17.025Z,14.15
2022-12-05T07:06:50.133Z,14.75
2022-12-05T07:09:18.007Z,14.07
2022-12-05T07:11:46.976Z,12.80
2022-12-05T07:17:00.582Z,14.75
2022-12-05T07:19:28.902Z,16.30
2022-12-05T07:21:55.630Z,15.85
2022-12-05T07:24:22.333Z,18.27
2022-12-05T07:26:49.064Z,15.23
2022-12-05T07:29:15.809Z,14.77
2022-12-05T07:31:42.628Z,14.00
2022-12-05T07:34:09.390Z,12.02
2022-12-05T07:36:37.447Z,13.23
2022-12-05T07:39:04.355Z,15.37
2022-12-05T07:41:33.043Z,12.32
2022-12-05T07:44:00.665Z,15.02
2022-12-05T07:46:28.588Z,14.68
2022-12-05T07:48:55.644Z,15.02
2022-12-05T07:51:22.659Z,15.93
2022-12-05T07:53:50.745Z,13.30
2022-12-05T07:56:18.038Z,17.67
2022-12-05T07:58:46.478Z,16.05
2022-12-05T08:01:15.313Z,15.82
2022-12-05T08:03:42.754Z,15.55
2022-12-05T08:06:11.748Z,12.82
2022-12-05T08:11:08.918Z,12.63
2022-12-05T08:13:36.072Z,10.77
2022-12-05T08:16:03.672Z,14.75
2022-12-05T08:18:30.921Z,16.45
2022-12-05T08:21:01.813Z,15.02
2022-12-05T08:23:29.344Z,12.50
2022-12-05T08:25:56.067Z,14.25
2022-12-05T08:28:24.128Z,16.92
2022-12-05T08:30:50.844Z,13.33
2022-12-05T08:33:17.619Z,12.05
2022-12-05T08:35:44.411Z,13.35
2022-12-05T08:38:11.110Z,15.90
2022-12-05T08:40:37.852Z,14.52
2022-12-05T08:43:04.545Z,13.13
2022-12-05T08:45:32.565Z,13.68
2022-12-05T08:47:59.235Z,15.77
2022-12-05T08:50:26.056Z,11.45
2022-12-05T08:52:52.765Z,15.98
2022-12-05T08:55:19.442Z,16.77
2022-12-05T08:57:46.207Z,12.70
2022-12-05T09:00:14.092Z,16.08
2022-12-05T09:02:42.169Z,12.90
2022-12-05T09:05:27.110Z,16.27
2022-12-05T09:07:55.261Z,16.60
2022-12-05T09:10:22.383Z,13.00
2022-12-05T09:12:49.190Z,13.27
2022-12-05T09:15:16.012Z,15.20
2022-12-05T09:17:44.163Z,14.13
2022-12-05T09:20:11.927Z,17.30
2022-12-05T09:22:38.650Z,13.25
2022-12-05T09:25:07.228Z,14.57
2022-12-05T09:27:33.934Z,15.77
2022-12-05T09:30:00.643Z,14.48
2022-12-05T09:32:27.368Z,12.98
2022-12-05T09:34:55.643Z,15.77
2022-12-05T09:37:38.774Z,13.40
2022-12-05T09:40:08.223Z,13.48
2022-12-05T09:42:42.777Z,15.68
2022-12-05T09:45:22.587Z,14.70
2022-12-05T09:47:55.456Z,14.63
2022-12-05T09:50:24.929Z,14.27
2022-12-05T09:53:10.472Z,14.82
2022-12-05T09:55:47.159Z,14.75
2022-12-05T09:58:25.018Z,12.77
2022-12-05T10:00:57.816Z,15.65
2022-12-05T10:03:30.767Z,14.57
2022-12-05T10:06:11.249Z,13.30
2022-12-05T10:08:49.497Z,14.48
2022-12-05T10:11:25.959Z,15.10
2022-12-05T10:14:00.487Z,14.77
2022-12-05T10:16:32.606Z,14.02
2022-12-05T10:19:03.487Z,14.95
2022-12-05T10:21:34.160Z,17.05
2022-12-05T10:24:02.894Z,18.20
2022-12-05T10:26:33.960Z,17.13
2022-12-05T10:29:09.292Z,14.32
2022-12-05T10:31:38.974Z,15.77
2022-12-05T10:34:14.021Z,16.40
2022-12-05T10:36:50.669Z,14.05
2022-12-05T10:39:17.449Z,15.25
2022-12-05T10:41:44.165Z,15.55
2022-12-05T10:44:11.060Z,15.55
2022-12-05T10:46:37.869Z,15.82
2022-12-05T10:49:10.723Z,16.15
2022-12-05T10:51:38.739Z,17.02
2022-12-05T10:54:16.545Z,14.30
2022-12-05T10:56:45.673Z,15.13
2022-12-05T10:59:14.512Z,16.13
2022-12-05T11:01:46.633Z,16.83
2022-12-05T11:04:29.557Z,16.58
2022-12-05T11:06:58.876Z,14.63
2022-12-05T11:09:29.511Z,15.82
2022-12-05T11:12:13.985Z,16.58
2022-12-05T11:14:52.851Z,15.13
2022-12-05T11:17:24.746Z,14.05
2022-12-05T11:19:51.442Z,14.20
2022-12-05T11:22:18.255Z,15.02
2022-12-05T11:24:46.309Z,14.70
2022-12-05T11:27:21.515Z,15.10
2022-12-05T11:29:55.045Z,14.50
2022-12-05T11:32:24.761Z,12.38
2022-12-05T11:34:58.865Z,13.95
2022-12-05T11:37:29.541Z,13.48
2022-12-05T11:39:57.807Z,13.32
2022-12-05T11:42:38.954Z,13.55
2022-12-05T11:45:39.487Z,12.10
2022-12-05T11:48:25.020Z,12.75
2022-12-05T11:51:07.750Z,10.63
2022-12-05T11:53:47.616Z,11.85
2022-12-05T11:56:27.712Z,12.10
2022-12-05T11:59:11.334Z,12.13
2022-12-05T12:01:47.200Z,12.85
2022-12-05T12:04:48.476Z,12.00
2022-12-05T12:07:25.540Z,14.00
2022-12-05T12:10:09.632Z,13.77
2022-12-05T12:12:49.973Z,15.75
2022-12-05T12:15:43.669Z,14.57
2022-12-05T12:18:21.250Z,12.70
2022-12-05T12:21:01.461Z,13.18
2022-12-05T12:23:39.359Z,13.95
2022-12-05T12:26:11.247Z,15.35
2022-12-05T12:28:46.746Z,16.25
2022-12-05T12:31:24.185Z,13.30
2022-12-05T12:34:01.885Z,13.00
2022-12-05T12:36:35.361Z,11.27
2022-12-05T12:39:25.543Z,10.48
2022-12-05T12:42:04.405Z,12.20
2022-12-05T12:45:01.470Z,10.98
2022-12-05T12:47:37.999Z,10.75
2022-12-05T12:50:15.957Z,10.90
2022-12-05T12:53:00.715Z,7.93
2022-12-05T12:55:40.981Z,9.02
2022-12-05T12:58:21.040Z,10.25
2022-12-05T13:00:58.795Z,10.65
2022-12-05T13:03:30.472Z,10.18
2022-12-05T13:06:02.435Z,10.18
2022-12-05T13:08:33.822Z,10.65
2022-12-05T13:11:05.654Z,13.63
2022-12-05T13:13:36.512Z,12.27
2022-12-05T13:16:07.069Z,11.38
2022-12-05T13:18:34.906Z,14.18
2022-12-05T13:21:05.656Z,15.15
2022-12-05T13:23:36.444Z,19.60
2022-12-05T13:26:09.482Z,14.38
2022-12-05T13:28:39.308Z,13.75
2022-12-05T13:31:09.049Z,11.82
2022-12-05T13:33:42.848Z,16.45
2022-12-05T13:36:17.043Z,14.38
2022-12-05T13:38:44.198Z,13.75
2022-12-05T13:41:10.961Z,14.30
2022-12-05T13:43:49.408Z,16.00
2022-12-05T13:46:28.808Z,15.27
2022-12-05T13:49:06.782Z,15.68
2022-12-05T13:51:37.499Z,14.85
2022-12-05T13:54:10.860Z,14.77
2022-12-05T13:56:50.112Z,14.95
2022-12-05T13:59:54.238Z,13.95
2022-12-05T14:02:51.562Z,13.43
2022-12-05T14:05:44.658Z,13.05
2022-12-05T14:08:47.836Z,14.23
2022-12-05T14:11:14.651Z,12.95
2022-12-05T14:13:43.674Z,11.32
2022-12-05T14:16:47.633Z,12.13
2022-12-05T14:19:47.196Z,12.70
2022-12-05T14:22:47.818Z,11.57
2022-12-05T14:25:34.816Z,12.13
2022-12-05T14:28:17.908Z,11.48
2022-12-05T14:31:02.607Z,11.57
2022-12-05T14:33:29.483Z,10.70
2022-12-05T14:36:06.681Z,14.23
2022-12-05T14:38:36.316Z,11.52
2022-12-05T14:41:14.144Z,10.98
2022-12-05T14:43:41.971Z,12.13
2022-12-05T14:46:18.170Z,11.32
2022-12-05T14:48:47.828Z,10.05
2022-12-05T14:51:44.654Z,17.05
2022-12-05T14:54:15.161Z,11.80
2022-12-05T14:56:43.744Z,9.38
2022-12-05T14:59:23.677Z,19.70
2022-12-05T15:01:53.932Z,15.57
2022-12-05T15:04:28.155Z,15.70
2022-12-05T15:06:59.429Z,12.57
2022-12-05T15:09:55.215Z,7.55
2022-12-05T15:12:25.266Z,7.10
2022-12-05T15:15:04.126Z,13.48
2022-12-05T15:17:38.650Z,20.80
2022-12-05T15:20:11.048Z,17.70
2022-12-05T15:22:39.064Z,17.85
2022-12-05T15:25:22.530Z,26.88
2022-12-05T15:28:01.793Z,21.95
2022-12-05T15:30:29.952Z,12.38
2022-12-05T15:32:59.679Z,10.63
2022-12-05T15:35:31.169Z,12.27
2022-12-05T15:38:04.389Z,6.05
2022-12-05T15:40:33.492Z,6.55
2022-12-05T15:43:00.148Z,5.72
2022-12-05T15:45:28.545Z,16.58
2022-12-05T15:47:56.704Z,12.88
2022-12-05T15:50:31.092Z,10.60
2022-12-05T15:53:03.485Z,10.77
2022-12-05T15:55:35.374Z,6.03
2022-12-05T15:58:12.652Z,8.85
2022-12-05T16:00:42.839Z,14.65
2022-12-05T16:03:14.962Z,7.75
2022-12-05T16:05:49.108Z,8.40
2022-12-05T16:08:17.323Z,10.95
2022-12-05T16:10:44.514Z,6.57
2022-12-05T16:13:14.677Z,7.45
2022-12-05T16:15:50.703Z,7.72
2022-12-05T16:18:27.926Z,6.38
2022-12-05T16:20:55.050Z,6.65
2022-12-05T16:23:26.915Z,9.00
2022-12-05T16:25:53.870Z,4.82
2022-12-05T16:28:21.987Z,10.68
2022-12-05T16:30:57.342Z,6.77
2022-12-05T16:33:24.389Z,6.53
2022-12-05T16:35:51.268Z,5.47
2022-12-05T16:38:20.796Z,8.88
2022-12-05T16:40:57.554Z,7.38
2022-12-05T16:43:44.804Z,7.20
2022-12-05T16:46:41.353Z,5.93
2022-12-05T16:49:17.999Z,5.55
2022-12-05T16:51:53.112Z,6.13
2022-12-05T16:54:19.865Z,5.97
2022-12-05T16:56:47.981Z,8.88
2022-12-05T16:59:22.780Z,11.40
2022-12-05T17:01:49.579Z,20.13
2022-12-05T17:04:16.448Z,27.10
2022-12-05T17:06:43.208Z,22.17
2022-12-05T17:09:10.002Z,15.95
2022-12-05T17:11:39.147Z,15.75
2022-12-05T17:14:09.954Z,18.33
2022-12-05T17:16:36.704Z,14.52
2022-12-05T17:19:03.517Z,16.67
2022-12-05T17:21:33.108Z,14.77
2022-12-05T17:24:00.296Z,11.32
2022-12-05T17:26:27.038Z,14.30
2022-12-05T17:28:54.025Z,14.15
2022-12-05T17:31:23.732Z,14.95
2022-12-05T17:33:52.245Z,11.63
2022-12-05T17:36:19.343Z,17.10
2022-12-05T17:38:46.021Z,9.38
2022-12-05T17:41:16.040Z,8.60
2022-12-05T17:43:42.761Z,10.85
2022-12-05T17:46:09.893Z,9.48
2022-12-05T17:48:37.888Z,7.28
2022-12-05T17:51:04.718Z,8.70
2022-12-05T17:53:31.994Z,9.18
2022-12-05T17:55:58.763Z,7.75
2022-12-05T17:58:25.544Z,8.77
2022-12-05T18:00:52.317Z,5.93
2022-12-05T18:03:19.516Z,7.20
2022-12-05T18:05:47.886Z,6.63
2022-12-05T18:08:14.680Z,7.00
2022-12-05T18:10:42.262Z,8.20
2022-12-05T18:13:09.144Z,8.00
2022-12-05T18:15:42.258Z,9.15
2022-12-05T18:18:13.928Z,8.73
2022-12-05T18:20:40.663Z,7.03
2022-12-05T18:23:08.931Z,7.00
2022-12-05T18:25:35.591Z,7.05
2022-12-05T18:28:02.309Z,9.30
2022-12-05T18:30:29.054Z,9.38
2022-12-05T18:32:55.807Z,12.35
2022-12-05T18:35:22.473Z,10.40
2022-12-05T18:37:49.232Z,8.55
2022-12-05T18:40:17.401Z,8.10
2022-12-05T18:42:44.079Z,11.27
2022-12-05T18:45:11.365Z,7.10
2022-12-05T18:47:38.109Z,7.05
2022-12-05T18:50:06.106Z,12.05
2022-12-05T18:52:34.869Z,12.07
2022-12-05T18:55:16.739Z,13.13
2022-12-05T18:57:45.565Z,12.02
2022-12-05T19:00:13.310Z,10.63
2022-12-05T19:02:40.042Z,20.70
2022-12-05T19:05:07.186Z,14.10
2022-12-05T19:07:33.944Z,19.13
2022-12-05T19:10:00.688Z,20.70
2022-12-05T19:12:27.431Z,13.73
2022-12-05T19:14:55.488Z,14.40
2022-12-05T19:17:22.209Z,11.25
2022-12-05T19:19:48.898Z,8.60
2022-12-05T19:22:15.621Z,9.50
2022-12-05T19:24:42.293Z,8.07
2022-12-05T19:27:09.009Z,7.97
2022-12-05T19:29:35.712Z,7.18
2022-12-05T19:32:04.085Z,7.60
2022-12-05T19:34:30.759Z,5.88
2022-12-05T19:36:57.442Z,6.45
2022-12-05T19:39:24.462Z,9.52
2022-12-05T19:41:51.853Z,7.20
2022-12-05T19:44:18.558Z,7.88
2022-12-05T19:46:45.261Z,8.57
2022-12-05T19:49:14.754Z,10.52
2022-12-05T19:51:41.702Z,11.10
2022-12-05T19:54:11.432Z,11.50
2022-12-05T19:56:38.741Z,10.65
2022-12-05T19:59:06.462Z,10.45
2022-12-05T20:01:34.766Z,10.02
2022-12-05T20:04:03.137Z,10.32
2022-12-05T20:06:33.700Z,12.02
2022-12-05T20:09:01.092Z,10.23
2022-12-05T20:11:27.983Z,65.38
2022-12-05T20:13:56.444Z,40.20
2022-12-05T20:16:24.101Z,30.65
2022-12-05T20:18:50.816Z,13.15
2022-12-05T20:21:19.868Z,10.80
2022-12-05T20:26:16.270Z,8.63
2022-12-05T20:28:43.504Z,10.80
2022-12-05T20:31:12.911Z,8.75
2022-12-05T20:33:40.156Z,10.15
2022-12-05T20:36:09.283Z,16.73
2022-12-05T20:38:36.019Z,16.98
2022-12-05T20:41:06.259Z,29.38
2022-12-05T20:43:33.057Z,22.67
2022-12-05T20:46:04.765Z,31.25
2022-12-05T20:48:31.996Z,22.98
2022-12-05T20:51:04.022Z,21.52
2022-12-05T20:53:33.200Z,22.73
2022-12-05T20:56:04.284Z,24.25
2022-12-05T20:58:30.996Z,24.35
2022-12-05T21:00:58.579Z,25.90
2022-12-05T21:03:25.359Z,19.73
2022-12-05T21:05:52.093Z,14.30
2022-12-05T21:08:18.906Z,22.20
2022-12-05T21:10:46.883Z,26.58
2022-12-05T21:13:14.967Z,16.15
2022-12-05T21:15:41.771Z,18.40
2022-12-05T21:18:08.504Z,15.98
2022-12-05T21:20:40.433Z,26.70
2022-12-05T21:23:08.718Z,63.33
2022-12-05T21:25:35.403Z,32.78
2022-12-05T21:28:02.173Z,59.17
2022-12-05T21:30:30.396Z,50.88
2022-12-05T21:32:57.109Z,23.83
2022-12-05T21:35:23.801Z,21.17
2022-12-05T21:37:50.518Z,16.73
2022-12-05T21:40:17.422Z,29.42
2022-12-05T21:42:44.108Z,20.70
2022-12-05T21:45:11.108Z,20.20
2022-12-05T21:47:39.131Z,21.25
2022-12-05T21:50:07.132Z,20.33
2022-12-05T21:52:35.453Z,34.03
2022-12-05T21:55:02.154Z,27.23
2022-12-05T21:57:29.445Z,25.35
2022-12-05T21:59:56.207Z,17.33
2022-12-05T22:02:23.123Z,10.23
2022-12-05T22:04:51.195Z,15.48
2022-12-05T22:07:17.917Z,8.73
2022-12-05T22:09:44.635Z,11.23
2022-12-05T22:12:11.508Z,10.52
2022-12-05T22:14:38.192Z,7.45
2022-12-05T22:17:04.909Z,13.77
2022-12-05T22:19:31.626Z,10.82
2022-12-05T22:21:59.653Z,29.52
2022-12-05T22:24:26.344Z,19.50
2022-12-05T22:26:53.000Z,12.60
2022-12-05T22:29:19.710Z,22.75
2022-12-05T22:31:46.464Z,18.58
2022-12-05T22:34:13.236Z,9.73
2022-12-05T22:36:39.928Z,9.38
2022-12-05T22:39:08.104Z,10.32
2022-12-05T22:41:34.783Z,10.48
2022-12-05T22:44:01.499Z,12.35
2022-12-05T22:46:29.158Z,12.00
2022-12-05T22:48:56.217Z,10.38
2022-12-05T22:51:23.676Z,13.65
2022-12-05T22:53:51.223Z,15.75
2022-12-05T22:56:20.667Z,14.50
2022-12-05T22:58:47.584Z,15.60
2022-12-05T23:01:16.858Z,10.73
2022-12-05T23:03:46.004Z,8.38
2022-12-05T23:06:14.712Z,8.23
2022-12-05T23:08:42.500Z,7.53
2022-12-05T23:11:10.597Z,8.13
2022-12-05T23:13:38.931Z,9.03
2022-12-05T23:16:06.849Z,8.45
2022-12-05T23:18:33.841Z,7.95
2022-12-05T23:21:02.959Z,7.10
2022-12-05T23:23:30.405Z,8.05
2022-12-05T23:25:57.208Z,8.90
2022-12-05T23:28:23.961Z,10.50
2022-12-05T23:30:52.092Z,12.10
2022-12-05T23:33:18.848Z,12.33
2022-12-05T23:35:45.565Z,11.32
2022-12-05T23:38:12.448Z,9.25
2022-12-05T23:40:39.254Z,8.70
2022-12-05T23:43:05.992Z,8.50
2022-12-05T23:45:32.763Z,7.85
2022-12-05T23:48:04.540Z,6.93
2022-12-05T23:50:31.642Z,7.18
2022-12-05T23:52:58.458Z,6.10
2022-12-05T23:55:25.196Z,5.82
2022-12-05T23:57:51.951Z,6.43
